createdAt,value
2022-08-26T00:01:56.736Z,750.30
2022-08-26T00:04:25.613Z,501.80
2022-08-26T00:06:54.857Z,1300.18
2022-08-26T00:09:24.812Z,557.35
2022-08-26T00:11:53.784Z,620.42
2022-08-26T00:14:21.855Z,605.72
2022-08-26T00:16:49.315Z,503.98
2022-08-26T00:19:18.306Z,928.30
2022-08-26T00:21:48.681Z,713.33
2022-08-26T00:24:19.111Z,773.60
2022-08-26T00:26:47.460Z,772.50
2022-08-26T00:29:15.095Z,914.30
2022-08-26T00:31:42.840Z,897.85
2022-08-26T00:34:15.395Z,1581.95
2022-08-26T00:36:43.759Z,1403.00
2022-08-26T00:39:11.271Z,823.08
2022-08-26T00:41:39.751Z,699.45
2022-08-26T00:44:08.277Z,972.28
2022-08-26T00:46:46.418Z,1141.85
2022-08-26T00:49:23.348Z,896.00
2022-08-26T00:51:55.379Z,978.13
2022-08-26T00:54:27.396Z,992.80
2022-08-26T00:57:08.746Z,1298.32
2022-08-26T00:59:46.850Z,1999.90
2022-08-26T01:02:20.181Z,1144.50
2022-08-26T01:04:56.268Z,1161.50
2022-08-26T01:07:26.197Z,1203.38
2022-08-26T01:09:56.269Z,1266.80
2022-08-26T01:12:25.398Z,818.15
2022-08-26T01:14:53.106Z,1294.00
2022-08-26T01:17:20.359Z,1023.47
2022-08-26T01:19:57.165Z,871.13
2022-08-26T01:22:30.117Z,951.95
2022-08-26T01:25:00.833Z,917.83
2022-08-26T01:27:33.531Z,1936.60
2022-08-26T01:30:01.949Z,935.92
2022-08-26T01:32:31.651Z,1250.07
2022-08-26T01:34:59.398Z,1052.70
2022-08-26T01:37:32.518Z,814.92
2022-08-26T01:40:00.165Z,929.40
2022-08-26T01:42:28.570Z,874.92
2022-08-26T01:45:11.222Z,898.28
2022-08-26T01:47:38.900Z,824.35
2022-08-26T01:50:11.886Z,1050.40
2022-08-26T01:52:42.696Z,899.35
2022-08-26T01:55:12.174Z,1271.43
2022-08-26T01:57:40.255Z,946.13
2022-08-26T02:00:14.806Z,876.72
2022-08-26T02:02:47.238Z,1888.63
2022-08-26T02:05:20.146Z,889.47
2022-08-26T02:07:48.642Z,878.60
2022-08-26T02:10:16.697Z,852.83
2022-08-26T02:12:46.914Z,954.55
2022-08-26T02:15:15.556Z,1383.57
2022-08-26T02:17:46.551Z,870.97
2022-08-26T02:20:18.771Z,1999.90
2022-08-26T02:22:47.508Z,1263.93
2022-08-26T02:25:35.153Z,828.42
2022-08-26T02:28:02.464Z,938.50
2022-08-26T02:30:33.123Z,1114.57
2022-08-26T02:33:05.188Z,1013.97
2022-08-26T02:35:33.969Z,762.28
2022-08-26T02:38:03.533Z,1018.33
2022-08-26T02:40:41.194Z,1094.85
2022-08-26T02:43:09.604Z,986.47
2022-08-26T02:45:36.987Z,923.85
2022-08-26T02:48:11.822Z,867.17
2022-08-26T02:50:40.478Z,1159.85
2022-08-26T02:53:10.855Z,1035.65
2022-08-26T02:55:38.282Z,907.40
2022-08-26T02:58:05.643Z,997.13
2022-08-26T03:00:37.259Z,1316.00
2022-08-26T03:03:06.130Z,869.38
2022-08-26T03:05:33.965Z,937.22
2022-08-26T03:08:01.819Z,955.10
2022-08-26T03:10:31.734Z,1007.78
2022-08-26T03:13:00.525Z,923.47
2022-08-26T03:15:32.569Z,903.67
2022-08-26T03:17:59.934Z,1052.22
2022-08-26T03:20:27.099Z,960.33
2022-08-26T03:22:56.160Z,970.25
2022-08-26T03:25:23.593Z,972.47
2022-08-26T03:27:52.023Z,1008.78
2022-08-26T03:30:38.923Z,921.15
2022-08-26T03:33:13.657Z,973.63
2022-08-26T03:35:43.427Z,1072.90
2022-08-26T03:38:11.235Z,664.53
2022-08-26T03:40:38.979Z,1208.82
2022-08-26T03:43:12.285Z,1178.38
2022-08-26T03:45:40.850Z,1484.90
2022-08-26T03:48:08.331Z,1455.10
2022-08-26T03:50:36.023Z,1232.65
2022-08-26T03:53:04.049Z,1219.22
2022-08-26T03:55:33.196Z,1265.25
2022-08-26T03:58:00.740Z,1155.60
2022-08-26T04:00:28.755Z,1196.22
2022-08-26T04:02:56.741Z,1383.55
2022-08-26T04:05:24.316Z,1050.65
2022-08-26T04:07:52.044Z,1146.60
2022-08-26T04:10:28.435Z,1001.95
2022-08-26T04:12:58.872Z,1032.13
2022-08-26T04:15:27.266Z,918.90
2022-08-26T04:17:56.110Z,986.53
2022-08-26T04:20:25.985Z,1016.60
2022-08-26T04:22:53.718Z,1071.15
2022-08-26T04:25:21.221Z,1122.50
2022-08-26T04:27:48.567Z,1396.00
2022-08-26T04:30:16.687Z,1237.65
2022-08-26T04:32:44.139Z,1448.05
2022-08-26T04:35:11.523Z,925.45
2022-08-26T04:37:39.986Z,1393.43
2022-08-26T04:40:11.252Z,1599.80
2022-08-26T04:42:38.559Z,1584.22
2022-08-26T04:45:09.931Z,1387.55
2022-08-26T04:47:38.037Z,1448.55
2022-08-26T04:50:06.870Z,1410.05
2022-08-26T04:52:36.491Z,1325.75
2022-08-26T04:55:04.754Z,1572.82
2022-08-26T04:57:33.924Z,1337.05
2022-08-26T05:00:01.121Z,1529.47
2022-08-26T05:02:28.716Z,1605.15
2022-08-26T05:04:55.861Z,1671.35
2022-08-26T05:07:23.048Z,1462.43
2022-08-26T05:09:50.233Z,1761.90
2022-08-26T05:12:17.394Z,1733.43
2022-08-26T05:14:46.314Z,1484.40
2022-08-26T05:17:14.948Z,1533.88
2022-08-26T05:19:42.922Z,1755.80
2022-08-26T05:22:10.532Z,1386.97
2022-08-26T05:24:43.776Z,1445.00
2022-08-26T05:27:11.640Z,1533.15
2022-08-26T05:29:40.355Z,1708.35
2022-08-26T05:32:07.662Z,1731.38
2022-08-26T05:34:35.018Z,1499.88
2022-08-26T05:37:02.181Z,1652.65
2022-08-26T05:39:31.511Z,1529.68
2022-08-26T05:41:58.905Z,1603.47
2022-08-26T05:44:27.105Z,1401.93
2022-08-26T05:46:54.372Z,1381.65
2022-08-26T05:49:22.574Z,1481.60
2022-08-26T05:51:53.694Z,1648.97
2022-08-26T05:54:21.880Z,1556.30
2022-08-26T05:56:50.682Z,1591.75
2022-08-26T05:59:23.989Z,1720.03
2022-08-26T06:01:52.805Z,1735.47
2022-08-26T06:04:20.151Z,1647.82
2022-08-26T06:06:47.585Z,1513.82
2022-08-26T06:09:14.881Z,1759.72
2022-08-26T06:11:45.464Z,1928.93
2022-08-26T06:14:13.053Z,1917.43
2022-08-26T06:16:43.670Z,1933.05
2022-08-26T06:19:15.327Z,1999.90
2022-08-26T06:21:46.511Z,1999.90
2022-08-26T06:24:33.049Z,1999.90
2022-08-26T06:27:04.841Z,1998.45
2022-08-26T06:29:34.899Z,1999.90
2022-08-26T06:32:04.491Z,1999.90
2022-08-26T06:34:31.736Z,1999.90
2022-08-26T06:37:02.464Z,1999.90
2022-08-26T06:39:30.613Z,1999.90
2022-08-26T06:42:00.059Z,1999.90
2022-08-26T06:44:28.082Z,1999.90
2022-08-26T06:46:57.896Z,1968.35
2022-08-26T06:49:27.417Z,1989.05
2022-08-26T06:51:58.419Z,1999.90
2022-08-26T06:54:27.863Z,1999.90
2022-08-26T06:56:56.738Z,1999.90
2022-08-26T06:59:24.618Z,1999.90
2022-08-26T07:01:52.186Z,1999.90
2022-08-26T07:04:22.428Z,1999.90
2022-08-26T07:06:52.985Z,1999.90
2022-08-26T07:09:26.550Z,1999.90
2022-08-26T07:11:56.229Z,1999.90
2022-08-26T07:14:25.072Z,1999.90
2022-08-26T07:16:54.251Z,1999.90
2022-08-26T07:19:31.031Z,1987.78
2022-08-26T07:22:05.676Z,1999.90
2022-08-26T07:24:35.304Z,1999.90
2022-08-26T07:27:05.466Z,1999.90
2022-08-26T07:29:34.087Z,1726.93
2022-08-26T07:32:01.890Z,1999.90
2022-08-26T07:34:29.134Z,1910.07
2022-08-26T07:36:56.839Z,1621.28
2022-08-26T07:39:24.895Z,1601.38
2022-08-26T07:41:53.905Z,1808.88
2022-08-26T07:44:21.231Z,1590.88
2022-08-26T07:46:52.340Z,1506.18
2022-08-26T07:49:22.768Z,1683.22
2022-08-26T07:51:50.960Z,1871.57
2022-08-26T07:54:18.891Z,1229.47
2022-08-26T07:56:47.418Z,1432.38
2022-08-26T07:59:16.930Z,1114.93
2022-08-26T08:01:46.076Z,1255.90
2022-08-26T08:04:14.853Z,977.97
2022-08-26T08:06:43.843Z,1045.47
2022-08-26T08:09:13.216Z,978.00
2022-08-26T08:11:41.421Z,972.65
2022-08-26T08:14:11.807Z,1718.25
2022-08-26T08:16:46.024Z,1068.13
2022-08-26T08:19:15.333Z,1038.28
2022-08-26T08:21:43.500Z,1160.57
2022-08-26T08:24:11.446Z,975.42
2022-08-26T08:26:39.397Z,985.70
2022-08-26T08:29:08.634Z,967.85
2022-08-26T08:31:56.602Z,906.83
2022-08-26T08:34:24.372Z,788.00
2022-08-26T08:36:54.203Z,896.33
2022-08-26T08:39:22.242Z,1999.90
2022-08-26T08:42:15.987Z,1189.10
2022-08-26T08:44:52.196Z,1999.90
2022-08-26T08:47:42.869Z,1999.90
2022-08-26T08:51:05.260Z,1999.90
2022-08-26T08:53:43.173Z,1999.90
2022-08-26T08:56:31.531Z,1999.90
2022-08-26T08:59:20.592Z,1234.47
2022-08-26T09:01:52.462Z,782.17
2022-08-26T09:04:59.236Z,838.90
2022-08-26T09:07:36.339Z,847.78
2022-08-26T09:10:32.844Z,726.80
2022-08-26T09:13:02.558Z,728.33
2022-08-26T09:15:59.972Z,865.63
2022-08-26T09:19:01.126Z,888.25
2022-08-26T09:21:29.783Z,915.10
2022-08-26T09:23:58.089Z,1016.70
2022-08-26T09:26:40.887Z,1057.70
2022-08-26T09:32:12.964Z,956.78
2022-08-26T09:34:57.180Z,990.05
2022-08-26T09:40:34.793Z,749.42
2022-08-26T09:43:06.809Z,808.95
2022-08-26T09:45:35.756Z,592.67
2022-08-26T09:48:03.462Z,1637.28
2022-08-26T09:50:49.162Z,1999.90
2022-08-26T09:53:21.074Z,1999.90
2022-08-26T09:56:36.797Z,1999.90
2022-08-26T09:59:08.270Z,1999.90
2022-08-26T10:01:43.634Z,1999.90
2022-08-26T10:04:21.650Z,1999.90
2022-08-26T10:06:58.241Z,1999.90
2022-08-26T10:09:26.654Z,1999.90
2022-08-26T10:12:10.553Z,1999.90
2022-08-26T10:14:47.898Z,1999.90
2022-08-26T10:17:39.745Z,1999.90
2022-08-26T10:20:28.482Z,1999.90
2022-08-26T10:23:19.860Z,1999.90
2022-08-26T10:26:09.641Z,1999.90
2022-08-26T10:29:03.527Z,1999.90
2022-08-26T10:31:55.116Z,1999.90
2022-08-26T10:34:31.348Z,1999.90
2022-08-26T10:37:13.662Z,1999.90
2022-08-26T10:39:51.886Z,1999.90
2022-08-26T10:42:35.392Z,1999.90
2022-08-26T10:45:14.989Z,1999.90
2022-08-26T10:47:59.703Z,1999.90
2022-08-26T10:50:38.735Z,1999.90
2022-08-26T10:53:24.891Z,1999.90
2022-08-26T10:56:18.932Z,1999.90
2022-08-26T10:59:18.829Z,1999.90
2022-08-26T11:01:52.577Z,1999.90
2022-08-26T11:04:23.026Z,1999.90
2022-08-26T11:07:29.897Z,1999.90
2022-08-26T11:10:01.587Z,1999.90
2022-08-26T11:12:35.986Z,1999.90
2022-08-26T11:15:36.272Z,1999.90
2022-08-26T11:18:09.725Z,1999.90
2022-08-26T11:20:44.761Z,1999.90
2022-08-26T11:23:13.139Z,1999.90
2022-08-26T11:26:35.985Z,1999.90
2022-08-26T11:29:03.276Z,1999.90
2022-08-26T11:31:30.655Z,1999.90
2022-08-26T11:34:03.749Z,1999.90
2022-08-26T11:36:46.414Z,1999.90
2022-08-26T11:39:28.696Z,1999.90
2022-08-26T11:42:14.079Z,1999.90
2022-08-26T11:44:49.085Z,1999.90
2022-08-26T11:47:26.979Z,1999.90
2022-08-26T11:50:19.046Z,1999.90
2022-08-26T11:53:01.731Z,1999.90
2022-08-26T11:55:30.498Z,1999.90
2022-08-26T11:58:00.956Z,1999.90
2022-08-26T12:00:33.773Z,1999.90
2022-08-26T12:03:07.701Z,1999.90
2022-08-26T12:05:42.284Z,1999.90
2022-08-26T12:08:13.646Z,1999.90
2022-08-26T12:10:41.613Z,1999.90
2022-08-26T12:13:22.651Z,1999.90
2022-08-26T12:15:55.803Z,1999.90
2022-08-26T12:18:31.112Z,1999.90
2022-08-26T12:21:00.353Z,1999.90
2022-08-26T12:23:40.063Z,1999.90
2022-08-26T12:26:21.152Z,1999.90
2022-08-26T12:28:52.946Z,1999.90
2022-08-26T12:31:33.973Z,1999.90
2022-08-26T12:34:05.418Z,1999.90
2022-08-26T12:36:37.663Z,1999.90
2022-08-26T12:39:13.995Z,1999.90
2022-08-26T12:41:45.224Z,1999.90
2022-08-26T12:44:53.244Z,1999.90
2022-08-26T12:47:41.883Z,1999.90
2022-08-26T12:50:25.340Z,1999.90
2022-08-26T12:53:10.724Z,1999.90
2022-08-26T12:55:44.859Z,1999.90
2022-08-26T12:58:12.039Z,1999.90
2022-08-26T13:00:41.052Z,1999.90
2022-08-26T13:03:45.747Z,1999.90
2022-08-26T13:06:31.250Z,1999.90
2022-08-26T13:08:59.939Z,1999.90
2022-08-26T13:11:31.818Z,1999.90
2022-08-26T13:14:21.084Z,1999.90
2022-08-26T13:16:52.997Z,1999.90
2022-08-26T13:19:23.925Z,1999.90
2022-08-26T13:21:54.414Z,1999.90
2022-08-26T13:24:24.824Z,1999.90
2022-08-26T13:26:52.350Z,1999.90
2022-08-26T13:29:20.075Z,1999.90
2022-08-26T13:31:48.280Z,1999.90
2022-08-26T13:34:19.358Z,1922.88
2022-08-26T13:36:52.395Z,1842.50
2022-08-26T13:39:20.553Z,270.52
2022-08-26T13:41:49.159Z,780.05
2022-08-26T13:44:16.534Z,604.67
2022-08-26T13:49:18.086Z,28.90
2022-08-26T13:51:45.264Z,122.25
2022-08-26T13:54:12.567Z,21.42
2022-08-26T13:56:40.051Z,23.20
2022-08-26T13:59:07.380Z,24.52
2022-08-26T14:01:35.452Z,70.55
2022-08-26T14:04:03.024Z,22.25
2022-08-26T14:06:30.541Z,27.52
2022-08-26T14:08:58.898Z,18.50
2022-08-26T14:11:26.860Z,45.03
2022-08-26T14:13:54.091Z,19.23
2022-08-26T14:16:34.530Z,26.48
2022-08-26T14:19:04.580Z,24.85
2022-08-26T14:21:34.732Z,36.13
2022-08-26T14:24:02.188Z,20.60
2022-08-26T14:26:30.087Z,24.13
2022-08-26T14:28:58.688Z,21.08
2022-08-26T14:31:27.444Z,17.23
2022-08-26T14:34:02.325Z,63.13
2022-08-26T14:36:31.984Z,34.58
2022-08-26T14:39:03.772Z,110.50
2022-08-26T14:41:32.652Z,56.58
2022-08-26T14:44:07.756Z,152.13
2022-08-26T14:46:50.627Z,597.60
2022-08-26T14:49:19.278Z,692.35
2022-08-26T14:51:47.315Z,30.45
2022-08-26T14:54:16.724Z,36.60
2022-08-26T14:56:46.162Z,34.33
2022-08-26T14:59:17.345Z,65.60
2022-08-26T15:01:46.653Z,636.92
2022-08-26T15:04:14.414Z,32.58
2022-08-26T15:06:42.167Z,193.63
2022-08-26T15:09:10.169Z,44.63
2022-08-26T15:11:37.745Z,52.60
2022-08-26T15:14:05.618Z,51.13
2022-08-26T15:16:34.084Z,46.70
2022-08-26T15:19:04.596Z,584.08
2022-08-26T15:21:35.852Z,25.15
2022-08-26T15:24:04.023Z,27.23
2022-08-26T15:26:32.105Z,27.45
2022-08-26T15:29:03.072Z,27.08
2022-08-26T15:31:33.822Z,26.55
2022-08-26T15:34:05.526Z,180.70
2022-08-26T15:36:35.269Z,25.52
2022-08-26T15:39:03.686Z,98.60
2022-08-26T15:41:30.914Z,29.95
2022-08-26T15:44:03.478Z,30.38
2022-08-26T15:46:31.904Z,34.05
2022-08-26T15:48:59.358Z,45.45
2022-08-26T15:51:32.762Z,44.92
2022-08-26T15:54:03.320Z,43.00
2022-08-26T15:56:37.474Z,51.47
2022-08-26T15:59:07.922Z,59.47
2022-08-26T16:01:35.782Z,50.03
2022-08-26T16:04:03.902Z,72.72
2022-08-26T16:06:34.264Z,76.10
2022-08-26T16:09:01.593Z,75.22
2022-08-26T16:11:29.438Z,72.80
2022-08-26T16:13:57.096Z,110.68
2022-08-26T16:16:24.752Z,194.07
2022-08-26T16:18:52.282Z,265.73
2022-08-26T16:21:27.674Z,195.98
2022-08-26T16:23:56.170Z,209.95
2022-08-26T16:26:29.151Z,224.25
2022-08-26T16:28:56.409Z,229.98
2022-08-26T16:31:24.093Z,334.80
2022-08-26T16:33:51.522Z,476.77
2022-08-26T16:36:19.759Z,603.42
2022-08-26T16:38:53.230Z,581.05
2022-08-26T16:41:20.571Z,760.38
2022-08-26T16:43:47.978Z,815.35
2022-08-26T16:46:16.157Z,602.35
2022-08-26T16:48:44.579Z,739.17
2022-08-26T16:51:13.731Z,1001.63
2022-08-26T16:53:40.969Z,998.30
2022-08-26T16:56:15.970Z,1061.82
2022-08-26T16:58:43.695Z,1188.85
2022-08-26T17:01:11.036Z,1350.53
2022-08-26T17:03:38.283Z,1341.32
2022-08-26T17:06:05.687Z,1517.22
2022-08-26T17:08:33.145Z,1665.18
2022-08-26T17:11:01.093Z,1999.90
2022-08-26T17:13:35.245Z,1999.90
2022-08-26T17:16:07.343Z,1999.90
2022-08-26T17:18:36.434Z,1485.70
2022-08-26T17:21:06.324Z,1435.30
2022-08-26T17:23:33.595Z,1029.85
2022-08-26T17:26:00.959Z,949.63
2022-08-26T17:28:28.127Z,1395.50
2022-08-26T17:31:00.014Z,1071.57
2022-08-26T17:33:28.318Z,1286.50
2022-08-26T17:35:55.746Z,899.40
2022-08-26T17:38:23.462Z,971.58
2022-08-26T17:40:51.905Z,704.65
2022-08-26T17:43:19.145Z,595.70
2022-08-26T17:45:46.613Z,711.05
2022-08-26T17:48:14.204Z,1014.80
2022-08-26T17:50:42.769Z,685.95
2022-08-26T17:53:17.789Z,862.15
2022-08-26T17:55:47.623Z,1053.80
2022-08-26T17:58:17.181Z,1031.07
2022-08-26T18:00:49.803Z,1009.92
2022-08-26T18:03:18.342Z,1809.15
2022-08-26T18:05:50.750Z,1022.20
2022-08-26T18:08:18.378Z,1036.55
2022-08-26T18:10:46.305Z,943.92
2022-08-26T18:13:16.700Z,968.42
2022-08-26T18:15:46.350Z,990.08
2022-08-26T18:18:14.700Z,991.28
2022-08-26T18:20:43.967Z,916.92
2022-08-26T18:23:12.651Z,959.63
2022-08-26T18:25:43.693Z,1004.92
2022-08-26T18:28:11.061Z,805.60
2022-08-26T18:30:38.297Z,648.97
2022-08-26T18:33:05.724Z,905.60
2022-08-26T18:35:37.414Z,666.38
2022-08-26T18:38:11.601Z,612.90
2022-08-26T18:40:44.152Z,583.47
2022-08-26T18:43:12.077Z,422.48
2022-08-26T18:45:39.324Z,441.70
2022-08-26T18:48:06.737Z,499.73
2022-08-26T18:50:37.164Z,459.00
2022-08-26T18:53:04.345Z,527.92
2022-08-26T18:55:31.652Z,537.92
2022-08-26T18:57:58.827Z,286.30
2022-08-26T19:00:26.343Z,248.10
2022-08-26T19:02:56.012Z,215.90
2022-08-26T19:05:23.370Z,187.98
2022-08-26T19:07:51.587Z,311.83
2022-08-26T19:10:18.934Z,285.55
2022-08-26T19:12:46.468Z,260.88
2022-08-26T19:15:19.398Z,258.33
2022-08-26T19:17:46.607Z,266.67
2022-08-26T19:20:14.447Z,300.30
2022-08-26T19:22:41.633Z,206.05
2022-08-26T19:25:09.265Z,502.98
2022-08-26T19:27:36.449Z,312.25
2022-08-26T19:30:06.180Z,274.73
2022-08-26T19:32:33.367Z,235.05
2022-08-26T19:35:00.539Z,412.63
2022-08-26T19:37:27.747Z,536.00
2022-08-26T19:39:56.323Z,319.58
2022-08-26T19:42:23.512Z,385.50
2022-08-26T19:45:24.325Z,298.35
2022-08-26T19:47:53.403Z,284.45
2022-08-26T19:50:22.201Z,314.55
2022-08-26T19:52:49.537Z,259.08
2022-08-26T19:55:18.691Z,212.40
2022-08-26T19:57:45.983Z,151.98
2022-08-26T20:00:16.137Z,179.55
2022-08-26T20:02:44.042Z,148.40
2022-08-26T20:05:14.094Z,201.38
2022-08-26T20:07:41.564Z,284.13
2022-08-26T20:10:12.805Z,369.73
2022-08-26T20:12:41.583Z,278.15
2022-08-26T20:15:11.104Z,357.92
2022-08-26T20:17:38.694Z,344.63
2022-08-26T20:20:32.804Z,321.50
2022-08-26T20:23:03.481Z,390.17
2022-08-26T20:25:32.488Z,454.52
2022-08-26T20:28:00.246Z,414.85
2022-08-26T20:30:27.490Z,470.67
2022-08-26T20:32:54.725Z,394.02
2022-08-26T20:35:22.544Z,496.80
2022-08-26T20:37:49.730Z,679.85
2022-08-26T20:40:17.338Z,646.42
2022-08-26T20:42:44.561Z,506.27
2022-08-26T20:45:12.015Z,569.85
2022-08-26T20:47:39.320Z,376.80
2022-08-26T20:50:08.423Z,338.10
2022-08-26T20:52:35.656Z,280.42
2022-08-26T20:55:02.963Z,285.80
2022-08-26T20:57:30.299Z,319.25
2022-08-26T20:59:57.514Z,231.02
2022-08-26T21:02:24.759Z,216.30
2022-08-26T21:04:51.939Z,231.25
2022-08-26T21:07:20.685Z,205.65
2022-08-26T21:09:49.509Z,151.43
2022-08-26T21:12:18.835Z,91.78
2022-08-26T21:14:49.542Z,111.53
2022-08-26T21:17:17.023Z,84.35
2022-08-26T21:19:44.341Z,90.32
2022-08-26T21:22:12.263Z,75.25
2022-08-26T21:24:39.520Z,80.88
2022-08-26T21:27:06.739Z,123.07
2022-08-26T21:29:34.046Z,99.03
2022-08-26T21:32:01.253Z,112.35
2022-08-26T21:34:28.815Z,260.90
2022-08-26T21:36:56.051Z,271.60
2022-08-26T21:39:23.254Z,403.48
2022-08-26T21:41:50.421Z,423.75
2022-08-26T21:44:18.156Z,511.25
2022-08-26T21:46:46.393Z,643.22
2022-08-26T21:49:15.828Z,731.08
2022-08-26T21:51:45.846Z,1077.25
2022-08-26T21:54:13.819Z,1110.15
2022-08-26T21:56:46.000Z,1249.80
2022-08-26T21:59:17.944Z,1632.53
2022-08-26T22:01:45.206Z,1969.00
2022-08-26T22:04:12.730Z,1737.20
2022-08-26T22:06:44.463Z,1999.90
2022-08-26T22:09:13.050Z,1912.53
2022-08-26T22:11:40.944Z,1999.90
2022-08-26T22:14:08.649Z,1999.90
2022-08-26T22:16:36.248Z,1999.90
2022-08-26T22:19:03.695Z,1913.75
2022-08-26T22:21:30.969Z,1999.90
2022-08-26T22:23:58.934Z,1999.90
2022-08-26T22:26:29.062Z,1999.90
2022-08-26T22:28:59.058Z,1999.90
2022-08-26T22:31:37.795Z,1799.88
2022-08-26T22:34:08.792Z,1999.90
2022-08-26T22:36:37.407Z,1758.93
2022-08-26T22:39:15.894Z,1999.90
2022-08-26T22:41:44.142Z,1999.90
2022-08-26T22:44:12.150Z,1999.90
2022-08-26T22:46:41.160Z,1999.90
2022-08-26T22:49:10.478Z,1988.82
2022-08-26T22:51:37.874Z,1999.90
2022-08-26T22:54:05.675Z,1999.90
2022-08-26T22:56:33.012Z,1999.90
2022-08-26T22:59:00.402Z,1999.90
2022-08-26T23:01:27.644Z,1999.90
2022-08-26T23:03:54.923Z,1999.90
2022-08-26T23:06:22.218Z,1999.90
2022-08-26T23:08:49.408Z,1999.90
2022-08-26T23:11:17.278Z,1999.90
2022-08-26T23:13:44.485Z,1999.90
2022-08-26T23:16:12.734Z,1999.90
2022-08-26T23:18:41.553Z,1769.28
2022-08-26T23:21:09.315Z,1630.78
2022-08-26T23:23:37.850Z,1968.70
2022-08-26T23:26:06.985Z,1674.55
2022-08-26T23:28:36.051Z,1216.05
2022-08-26T23:31:03.737Z,1582.95
2022-08-26T23:33:50.935Z,960.70
2022-08-26T23:36:22.970Z,1403.57
2022-08-26T23:38:52.732Z,1014.97
2022-08-26T23:41:24.063Z,1378.63
2022-08-26T23:43:51.917Z,853.22
2022-08-26T23:46:20.448Z,1133.20
2022-08-26T23:48:48.187Z,1391.95
2022-08-26T23:51:33.974Z,1681.13
2022-08-26T23:54:01.322Z,1448.65
2022-08-26T23:56:29.042Z,975.72
2022-08-26T23:58:56.491Z,1221.65
